createdAt,value
2018-12-19T00:01:37.032Z,61.10
2018-12-19T00:04:33.801Z,55.13
2018-12-19T00:07:30.865Z,52.63
2018-12-19T00:10:26.479Z,47.13
2018-12-19T00:13:23.956Z,46.27
2018-12-19T00:16:19.985Z,47.27
2018-12-19T00:19:16.497Z,48.33
2018-12-19T00:22:16.658Z,49.10
2018-12-19T00:25:13.440Z,49.07
2018-12-19T00:28:10.424Z,51.67
2018-12-19T00:31:08.029Z,49.70
2018-12-19T00:34:05.083Z,53.63
2018-12-19T00:37:01.275Z,53.63
2018-12-19T00:39:58.355Z,54.83
2018-12-19T00:42:54.688Z,54.80
2018-12-19T00:45:54.502Z,57.90
2018-12-19T00:48:48.074Z,58.63
2018-12-19T00:51:44.680Z,61.60
2018-12-19T00:54:41.087Z,64.23
2018-12-19T00:57:37.330Z,69.67
2018-12-19T01:00:33.947Z,71.13
2018-12-19T01:03:30.085Z,79.40
2018-12-19T01:06:26.723Z,81.97
2018-12-19T01:09:25.271Z,87.50
2018-12-19T01:12:30.467Z,88.83
2018-12-19T01:15:26.296Z,89.00
2018-12-19T01:18:22.477Z,90.00
2018-12-19T01:21:18.946Z,93.23
2018-12-19T01:24:15.409Z,93.43
2018-12-19T01:27:11.744Z,94.20
2018-12-19T01:30:08.188Z,105.17
2018-12-19T01:33:04.354Z,110.07
2018-12-19T01:36:01.504Z,108.60
2018-12-19T01:38:58.179Z,111.73
2018-12-19T01:41:55.009Z,116.17
2018-12-19T01:44:51.580Z,126.00
2018-12-19T01:47:47.765Z,134.07
2018-12-19T01:50:44.349Z,138.57
2018-12-19T01:53:41.562Z,144.57
2018-12-19T01:56:37.816Z,147.47
2018-12-19T01:59:34.049Z,157.37
2018-12-19T02:02:30.757Z,161.13
2018-12-19T02:05:30.415Z,178.77
2018-12-19T02:08:27.112Z,197.10
2018-12-19T02:11:23.711Z,195.73
2018-12-19T02:14:20.029Z,199.63
2018-12-19T02:17:16.058Z,202.17
2018-12-19T02:20:12.289Z,201.97
2018-12-19T02:23:09.454Z,207.03
2018-12-19T02:26:06.309Z,210.27
2018-12-19T02:29:03.368Z,221.63
2018-12-19T02:31:59.917Z,225.40
2018-12-19T02:34:56.688Z,225.87
2018-12-19T02:37:53.144Z,229.87
2018-12-19T02:40:49.741Z,212.67
2018-12-19T02:43:47.039Z,205.07
2018-12-19T02:46:43.921Z,195.43
2018-12-19T02:49:43.771Z,206.57
2018-12-19T02:52:40.675Z,191.40
2018-12-19T02:55:37.991Z,186.17
2018-12-19T02:58:34.939Z,175.37
2018-12-19T03:01:31.189Z,173.07
2018-12-19T03:04:28.109Z,171.37
2018-12-19T03:07:24.603Z,170.33
2018-12-19T03:10:21.377Z,175.47
2018-12-19T03:13:17.175Z,205.83
2018-12-19T03:16:14.067Z,182.80
2018-12-19T03:19:13.561Z,180.93
2018-12-19T03:22:10.686Z,180.73
2018-12-19T03:25:07.338Z,168.02
2018-12-19T03:28:04.475Z,154.70
2018-12-19T03:31:01.146Z,162.53
2018-12-19T03:33:57.893Z,157.10
2018-12-19T03:36:54.228Z,141.73
2018-12-19T03:39:50.525Z,143.83
2018-12-19T03:42:46.974Z,151.43
2018-12-19T03:45:44.192Z,146.67
2018-12-19T03:48:56.633Z,138.67
2018-12-19T03:51:53.591Z,130.23
2018-12-19T03:54:49.562Z,133.83
2018-12-19T03:57:46.628Z,134.23
2018-12-19T04:00:43.337Z,137.13
2018-12-19T04:03:39.798Z,138.40
2018-12-19T04:06:39.023Z,131.03
2018-12-19T04:09:35.663Z,133.90
2018-12-19T04:12:31.668Z,130.37
2018-12-19T04:15:28.491Z,111.43
2018-12-19T04:18:25.085Z,86.65
2018-12-19T04:21:22.057Z,88.27
2018-12-19T04:24:18.803Z,80.92
2018-12-19T04:27:18.335Z,74.17
2018-12-19T04:30:14.117Z,76.90
2018-12-19T04:33:11.101Z,71.85
2018-12-19T04:36:12.361Z,56.80
2018-12-19T04:39:07.151Z,61.10
2018-12-19T04:42:03.594Z,61.42
2018-12-19T04:44:59.717Z,57.93
2018-12-19T04:47:57.077Z,51.47
2018-12-19T04:50:56.048Z,48.85
2018-12-19T04:53:52.802Z,49.10
2018-12-19T04:56:48.632Z,51.80
2018-12-19T04:59:48.271Z,54.83
2018-12-19T05:02:40.949Z,44.27
2018-12-19T05:05:36.581Z,37.97
2018-12-19T05:08:33.052Z,42.10
2018-12-19T05:11:35.105Z,40.38
2018-12-19T05:14:40.624Z,46.53
2018-12-19T05:17:58.989Z,50.75
2018-12-19T05:21:08.236Z,48.63
2018-12-19T05:24:41.707Z,49.90
2018-12-19T05:28:16.343Z,53.60
2018-12-19T05:35:34.389Z,36.55
2018-12-19T05:38:33.748Z,41.53
2018-12-19T05:41:31.746Z,41.90
2018-12-19T05:44:28.809Z,38.88
2018-12-19T05:47:25.439Z,41.23
2018-12-19T05:50:28.773Z,36.98
2018-12-19T05:53:26.414Z,39.55
2018-12-19T05:56:26.859Z,34.05
2018-12-19T05:59:30.300Z,32.05
2018-12-19T06:02:27.042Z,30.62
2018-12-19T06:05:23.754Z,31.42
2018-12-19T06:08:26.552Z,38.70
2018-12-19T06:11:41.790Z,23.65
2018-12-19T06:14:38.209Z,28.85
2018-12-19T06:17:36.678Z,30.12
2018-12-19T06:20:33.039Z,24.18
2018-12-19T06:23:32.368Z,25.37
2018-12-19T06:26:30.393Z,23.30
2018-12-19T06:29:29.493Z,19.60
2018-12-19T06:32:26.903Z,21.85
2018-12-19T06:35:23.100Z,19.48
2018-12-19T06:38:23.338Z,21.73
2018-12-19T06:41:19.640Z,20.02
2018-12-19T06:44:15.889Z,22.10
2018-12-19T06:47:12.126Z,27.50
2018-12-19T06:50:08.157Z,29.92
2018-12-19T06:53:07.094Z,23.22
2018-12-19T06:56:04.440Z,22.15
2018-12-19T06:59:02.764Z,24.25
2018-12-19T07:02:00.671Z,20.55
2018-12-19T07:04:58.549Z,24.15
2018-12-19T07:07:54.922Z,21.70
2018-12-19T07:10:52.353Z,25.05
2018-12-19T07:13:50.645Z,23.65
2018-12-19T07:16:52.073Z,19.87
2018-12-19T07:19:50.769Z,20.17
2018-12-19T07:22:53.497Z,25.55
2018-12-19T07:25:52.597Z,23.30
2018-12-19T07:28:59.986Z,21.20
2018-12-19T07:31:53.189Z,24.10
2018-12-19T07:34:50.724Z,20.45
2018-12-19T07:37:49.803Z,20.88
2018-12-19T07:40:46.205Z,24.00
2018-12-19T07:43:44.643Z,22.95
2018-12-19T07:46:46.027Z,23.15
2018-12-19T07:49:44.700Z,23.95
2018-12-19T07:52:42.392Z,23.73
2018-12-19T07:55:41.075Z,21.52
2018-12-19T07:58:38.069Z,21.00
2018-12-19T08:01:35.662Z,25.60
2018-12-19T08:04:33.228Z,23.38
2018-12-19T08:07:29.566Z,23.42
2018-12-19T08:10:30.199Z,22.22
2018-12-19T08:13:30.536Z,23.92
2018-12-19T08:16:30.347Z,21.90
2018-12-19T08:19:28.635Z,20.88
2018-12-19T08:22:25.248Z,22.93
2018-12-19T08:25:23.398Z,21.93
2018-12-19T08:28:22.051Z,25.37
2018-12-19T08:31:19.484Z,21.25
2018-12-19T08:34:16.508Z,22.93
2018-12-19T08:37:12.974Z,24.63
2018-12-19T08:40:10.693Z,21.10
2018-12-19T08:43:11.927Z,20.32
2018-12-19T08:46:14.557Z,24.90
2018-12-19T08:49:09.861Z,21.80
2018-12-19T08:52:10.015Z,25.77
2018-12-19T08:55:07.175Z,21.45
2018-12-19T08:58:03.629Z,25.92
2018-12-19T09:01:00.339Z,24.50
2018-12-19T09:03:56.640Z,25.02
2018-12-19T09:06:53.477Z,27.40
2018-12-19T09:09:51.151Z,27.98
2018-12-19T09:12:50.282Z,25.82
2018-12-19T09:15:57.955Z,28.77
2018-12-19T09:18:54.570Z,26.90
2018-12-19T09:21:51.163Z,27.15
2018-12-19T09:24:48.657Z,24.35
2018-12-19T09:27:46.966Z,26.40
2018-12-19T09:30:44.970Z,23.60
2018-12-19T09:33:40.616Z,26.27
2018-12-19T09:36:39.614Z,25.82
2018-12-19T09:39:37.375Z,27.80
2018-12-19T09:42:33.913Z,25.17
2018-12-19T09:45:31.456Z,29.00
2018-12-19T09:48:29.003Z,28.95
2018-12-19T09:51:26.641Z,27.22
2018-12-19T09:54:27.172Z,32.80
2018-12-19T09:57:23.615Z,31.23
2018-12-19T10:00:34.510Z,27.90
2018-12-19T10:03:32.330Z,29.55
2018-12-19T10:06:28.736Z,29.27
2018-12-19T10:09:25.029Z,35.38
2018-12-19T10:12:22.148Z,36.23
2018-12-19T10:15:18.144Z,29.07
2018-12-19T10:18:14.690Z,30.95
2018-12-19T10:21:11.034Z,29.85
2018-12-19T10:24:07.031Z,38.30
2018-12-19T10:27:04.431Z,31.30
2018-12-19T10:30:03.492Z,29.05
2018-12-19T10:33:01.232Z,28.38
2018-12-19T10:36:02.745Z,31.90
2018-12-19T10:39:00.017Z,37.65
2018-12-19T10:41:56.122Z,33.15
2018-12-19T10:44:53.879Z,27.67
2018-12-19T10:47:53.874Z,29.65
2018-12-19T10:50:52.361Z,28.47
2018-12-19T10:54:00.493Z,36.03
2018-12-19T10:57:02.465Z,28.27
2018-12-19T11:00:02.750Z,28.87
2018-12-19T11:03:01.903Z,33.40
2018-12-19T11:06:00.665Z,31.90
2018-12-19T11:08:58.379Z,32.58
2018-12-19T11:12:18.296Z,31.55
2018-12-19T11:15:16.874Z,34.30
2018-12-19T11:18:16.328Z,32.40
2018-12-19T11:21:15.174Z,32.50
2018-12-19T11:24:15.209Z,35.65
2018-12-19T11:27:23.479Z,37.90
2018-12-19T11:30:22.071Z,35.95
2018-12-19T11:33:22.070Z,33.30
2018-12-19T11:36:17.792Z,36.65
2018-12-19T11:39:21.341Z,35.68
2018-12-19T11:42:18.925Z,36.15
2018-12-19T11:45:26.702Z,35.50
2018-12-19T11:48:27.774Z,34.18
2018-12-19T11:51:33.945Z,35.23
2018-12-19T11:54:33.859Z,34.30
2018-12-19T11:57:39.437Z,34.88
2018-12-19T12:00:36.796Z,34.90
2018-12-19T12:03:34.186Z,35.25
2018-12-19T12:06:32.638Z,38.15
2018-12-19T12:09:29.205Z,39.63
2018-12-19T12:12:28.251Z,38.45
2018-12-19T12:15:25.299Z,43.30
2018-12-19T12:18:22.942Z,45.95
2018-12-19T12:21:20.233Z,40.95
2018-12-19T12:24:18.697Z,43.30
2018-12-19T12:27:19.140Z,43.33
2018-12-19T12:30:20.097Z,46.15
2018-12-19T12:36:44.875Z,51.18
2018-12-19T12:39:41.398Z,48.08
2018-12-19T12:42:37.225Z,54.77
2018-12-19T12:45:34.987Z,64.03
2018-12-19T12:48:32.017Z,62.40
2018-12-19T12:51:30.536Z,64.58
2018-12-19T12:54:31.334Z,64.70
2018-12-19T12:57:33.209Z,56.70
2018-12-19T13:00:34.017Z,57.90
2018-12-19T13:03:33.960Z,58.68
2018-12-19T13:06:32.110Z,53.10
2018-12-19T13:09:31.613Z,58.83
